map of GPS home
Great Circle Mapper logo
GPS - Airport
Location
City:  Baltra, Baltra Island, Galápagos Islands, Ecuador
Near (Alt.):Seymour
ICAO / IATA:SEGS / GPS

Details
Type:Airport (Aerodrome, Airfield)
Use:Public/Civil, Military
Latitude:0°27'14"S (-0.453757)
Longitude:90°15'57"W (-90.265913)
Datum:WGS 1984
Elevation:207 ft (63 m)
Variation:3.81°E (WMM2015 magnetic declination)
-0.13° annual change
Runways:1
Longest:7876 × 115 ft (2401 × 35 m), paved

Time
Time Zone:UTC-6
Local Time:

Weather
METAR:SEGS 051800Z 18006KT 9999 SCT030 BKN100 30/21 Q1014 A2995

Related Locations
Nearby:
Farthest:WITG: 11974 mi / 19270 km
Sinabang, AC, ID

Find:

   beyond  
but within

Other Information
Maps:
NOTAMs:
Links:
Sources:

  
flag of Ecuador
flag of Galápagos Islands
  

Sectional Chart

Flight Planning
at skyvector.com

Satellite Image

Google Maps Satellite view

 

Copyright © 2004-2015 Karl L. Swartz. All rights reserved.
The Great Circle Mapper name and logo are trademarks of the Great Circle Mapper.
All other trademarks mentioned herein belong to their respective owners.
Please see credits for attibutions and further copyright information.

  Follow gcmap on Facebook Follow gcmap on Twitter Follow gcmap on Google+

hCard Microformat

Geo Microformat